»·PEaware :: N143FY KOAK-KSAN

N143FY :: KOAK-KSAN

FLIGHT INFORMATION

Flight Status: Arrived
Operator: Privately registered:
United States
More flights under this callsign
Pilot: Lance S. (37840)
Aircraft: Cessna 525C Citation CJ4
(C25C)
More flights by this aircraft type
Origin: KOAK Metro Oakland Intl
United States
Destination: KSAN San Diego Intl-Lindbergh
United States
More flights between these airports :: More routes between these airports
Route: CNDEL5 YYUNG LAX COMIX2
File this flight plan on PilotEdge
Remarks: RMK / SIMBRIEF
Altitude:
(Current/Filed)
38,000ft
Speed:
(Current/Filed)
431kts
Departed: 10-Jan-22 04:16 PM
Arrived: 10-Jan-22 05:29 PM
Distance/Time
Traveled:
387nm/1:13
Distance/Time
To Go:
Arrived

Flight Plot

Page will automatically refresh every two minutes.

Flight plan parsing failed; only flown route is shown


Map Options




Map Legend


Flown Route
Filed Route
Departure Airport
Arrival Airport
Navaid (VOR, NDB)
Fix

Horizontal Profiles

Position Reports

Time Latitude Longitude Heading Altitude Ground
Speed
10-Jan-22 16:01 37.727923 -122.209303 347 10ft 0kts
10-Jan-22 16:02 37.727923 -122.209303 347 10ft 0kts
10-Jan-22 16:03 37.727923 -122.209303 347 10ft 0kts
10-Jan-22 16:04 37.727923 -122.209303 347 10ft 0kts
10-Jan-22 16:05 37.727923 -122.209303 347 10ft 0kts
10-Jan-22 16:06 37.727923 -122.209303 347 10ft 0kts
10-Jan-22 16:07 37.727923 -122.209303 347 10ft 0kts
10-Jan-22 16:08 37.727923 -122.209303 347 10ft 0kts
10-Jan-22 16:09 37.727923 -122.209303 347 10ft 0kts
10-Jan-22 16:10 37.727923 -122.209303 347 10ft 0kts
10-Jan-22 16:11 37.727923 -122.209303 347 10ft 0kts
10-Jan-22 16:12 37.727923 -122.209303 347 10ft 0kts
10-Jan-22 16:13 37.727923 -122.209303 347 10ft 0kts
10-Jan-22 16:14 37.726361 -122.206365 111 9ft 13kts
10-Jan-22 16:15 37.726153 -122.208846 294 12ft 93kts
10-Jan-22 16:16 37.744529 -122.264803 294 2355ft 215kts
10-Jan-22 16:17 37.734790 -122.341992 218 5820ft 279kts
10-Jan-22 16:19 37.666492 -122.391684 206 10044ft 294kts
10-Jan-22 16:20 37.583548 -122.430851 201 12847ft 334kts
10-Jan-22 16:21 37.492316 -122.456328 160 15627ft 360kts
10-Jan-22 16:22 37.420789 -122.366296 126 17971ft 374kts
10-Jan-22 16:23 37.353687 -122.263431 128 19855ft 388kts
10-Jan-22 16:24 37.284485 -122.156061 126 21500ft 400kts
10-Jan-22 16:25 37.213261 -122.046293 126 23003ft 413kts
10-Jan-22 16:26 37.139615 -121.933266 125 24260ft 422kts
10-Jan-22 16:27 37.064818 -121.818625 125 26047ft 429kts
10-Jan-22 16:28 36.988519 -121.702236 126 27665ft 437kts
10-Jan-22 16:29 36.910402 -121.583541 126 29684ft 448kts
10-Jan-22 16:30 36.830232 -121.462077 128 31450ft 459kts
10-Jan-22 16:31 36.748941 -121.339381 130 33521ft 455kts
10-Jan-22 16:32 36.668634 -121.218663 130 35305ft 453kts
10-Jan-22 16:33 36.587796 -121.097543 130 36793ft 455kts
10-Jan-22 16:34 36.506200 -120.976804 137 37923ft 461kts
10-Jan-22 16:35 36.389972 -120.954367 194 38049ft 431kts
10-Jan-22 16:36 36.269889 -120.974615 190 38065ft 449kts
10-Jan-22 16:37 36.143702 -120.991145 188 38069ft 455kts
10-Jan-22 16:38 36.018473 -121.006493 189 38076ft 450kts
10-Jan-22 16:39 35.892681 -121.022261 189 38082ft 458kts
10-Jan-22 16:40 35.765515 -121.037904 189 38079ft 459kts
10-Jan-22 16:41 35.638670 -121.053629 189 38062ft 456kts
10-Jan-22 16:42 35.514598 -121.057387 160 38114ft 464kts
10-Jan-22 16:42 35.444367 -120.959778 119 38100ft 471kts
10-Jan-22 16:43 35.373916 -120.824599 127 38099ft 472kts
10-Jan-22 16:45 35.285172 -120.671740 127 38096ft 473kts
10-Jan-22 16:46 35.208555 -120.540655 126 38105ft 473kts
10-Jan-22 16:46 35.144588 -120.431869 127 38101ft 471kts
10-Jan-22 16:47 35.068846 -120.303718 127 38105ft 462kts
10-Jan-22 16:48 34.993510 -120.176324 127 38113ft 463kts
10-Jan-22 16:50 34.905160 -120.027754 127 38118ft 465kts
10-Jan-22 16:50 34.841742 -119.921398 127 38108ft 465kts
10-Jan-22 16:51 34.765591 -119.794209 127 38120ft 466kts
10-Jan-22 16:52 34.689288 -119.667096 128 38140ft 463kts
10-Jan-22 16:53 34.613249 -119.540974 128 38133ft 460kts
10-Jan-22 16:54 34.537727 -119.416139 128 38121ft 460kts
10-Jan-22 16:55 34.461401 -119.290355 128 38123ft 464kts
10-Jan-22 16:56 34.384447 -119.164145 128 38140ft 467kts
10-Jan-22 16:57 34.307575 -119.038272 128 38147ft 463kts
10-Jan-22 16:58 34.231174 -118.913789 128 38149ft 460kts
10-Jan-22 16:59 34.156676 -118.792723 128 38155ft 458kts
10-Jan-22 17:00 34.080899 -118.670092 129 38173ft 457kts
10-Jan-22 17:01 34.005109 -118.546225 131 38161ft 461kts
10-Jan-22 17:02 33.921979 -118.427357 133 38165ft 465kts
10-Jan-22 17:03 33.841119 -118.307758 131 38163ft 454kts
10-Jan-22 17:04 33.761262 -118.190927 132 37754ft 461kts
10-Jan-22 17:05 33.680394 -118.072299 132 35635ft 431kts
10-Jan-22 17:06 33.609068 -117.968322 133 33135ft 382kts
10-Jan-22 17:07 33.530495 -117.867929 157 30276ft 436kts
10-Jan-22 17:08 33.427201 -117.796167 155 27708ft 414kts
10-Jan-22 17:09 33.352382 -117.710281 134 22021ft 381kts
10-Jan-22 17:10 33.284203 -117.638028 139 16453ft 286kts
10-Jan-22 17:11 33.226442 -117.601247 129 14584ft 259kts
10-Jan-22 17:12 33.178801 -117.527346 135 11997ft 291kts
10-Jan-22 17:13 33.115399 -117.469468 142 9103ft 281kts
10-Jan-22 17:14 33.052631 -117.420768 178 6583ft 251kts
10-Jan-22 17:15 32.998835 -117.405651 139 6280ft 220kts
10-Jan-22 17:16 32.951278 -117.360939 141 6259ft 216kts
10-Jan-22 17:17 32.903737 -117.316921 141 6262ft 218kts
10-Jan-22 17:18 32.853703 -117.270410 141 6269ft 250kts
10-Jan-22 17:19 32.797369 -117.217842 141 6273ft 260kts
10-Jan-22 17:20 32.740296 -117.165017 141 6268ft 260kts
10-Jan-22 17:21 32.731377 -117.089523 72 6272ft 257kts
10-Jan-22 17:22 32.752775 -117.008625 91 6275ft 256kts
10-Jan-22 17:23 32.693405 -116.980310 189 5061ft 284kts
10-Jan-22 17:24 32.654882 -117.031395 302 4313ft 233kts
10-Jan-22 17:25 32.695120 -117.074936 324 2773ft 140kts
10-Jan-22 17:26 32.716853 -117.117435 288 1460ft 167kts
10-Jan-22 17:27 32.728118 -117.166757 287 357ft 146kts
10-Jan-22 17:28 32.733384 -117.191611 196 17ft 0kts
10-Jan-22 17:29 32.733264 -117.191680 215 17ft 10kts
10-Jan-22 17:30 32.732838 -117.195380 278 18ft 8kts

Navigation Log

Ident Type
Flight plan parsing failed, navigation log unavailable